Hostname: pi-star
Pi-Star:3.4.17 / Dashboard: 20190905

Pi-Star Logo Digital Voice Dashboard for MW0MWZ

Dashboard | Admin | Configuration



DAPNET Gateway Activity
Time (BST)Time in BST time zone Time SlotMessage Mode TargetRIC / CapCode of the receiving Pager MessageMessage contents
08:24:09 Oct 15th Slot 4 0002504 [Skyper OTA Time] 072400 151019
08:22:01 Oct 15th Slot 0 0002504 [Skyper OTA Time] 072200 151019
08:21:10 Oct 15th Slot 8 0351172 M0GLJ: LBBG 150700Z 28005KT 240V320 9999 OVC015 16/13 Q1021 NOSIG
08:21:10 Oct 15th Slot 8 0351172 M0GLJ: LCPH 150700Z 13007KT 9999 SCT025TCU FEW030CB 28/22 Q1014
08:21:10 Oct 15th Slot 8 0351172 M0GLJ: GCLP 150700Z 01009KT 340V050 9999 FEW020 BKN028 21/17 Q1021 NOSIG
08:21:10 Oct 15th Slot 8 0351172 M0GLJ: EGNX 150650Z 25008KT 6000 -RA BKN018 09/09 Q1002
08:20:19 Oct 15th Slot 0 0000008 mw0mwz
08:18:11 Oct 15th Slot 12 0002504 [Skyper OTA Time] 071800 151019
08:16:03 Oct 15th Slot 8 0002504 [Skyper OTA Time] 071600 151019
08:14:46 Oct 15th Slot 12 2033669 7':8899=
08:14:00 Oct 15th Slot 4 0002504 [Skyper OTA Time] 071400 151019
08:12:12 Oct 15th Slot 4 0002504 [Skyper OTA Time] 071200 151019
08:11:21 Oct 15th Slot 12 2041233 PE1BVU: TX-TEST
08:10:04 Oct 15th Slot 0 0000008 mw0mwz
08:10:04 Oct 15th Slot 0 0002504 [Skyper OTA Time] 071000 151019
08:08:00 Oct 15th Slot 12 0002504 [Skyper OTA Time] 070800 151019
08:06:14 Oct 15th Slot 12 0002504 [Skyper OTA Time] 070600 151019
08:04:06 Oct 15th Slot 8 0002504 [Skyper OTA Time] 070400 151019
08:02:00 Oct 15th Slot 4 0002504 [Skyper OTA Time] 070200 151019
08:01:58 Oct 15th Slot 4 0004520 [Skyper Rubric:28 Msg:10] VERON: Resultaten 2de FT4-contest RSGB